createdAt,value
2023-01-17T00:02:08.321Z,4.00
2023-01-17T00:04:54.288Z,4.00
2023-01-17T00:07:41.096Z,4.00
2023-01-17T00:10:11.207Z,3.90
2023-01-17T00:12:40.642Z,3.90
2023-01-17T00:15:09.977Z,3.80
2023-01-17T00:17:37.800Z,3.80
2023-01-17T00:20:23.877Z,3.90
2023-01-17T00:23:17.708Z,3.80
2023-01-17T00:26:03.074Z,3.80
2023-01-17T00:28:33.068Z,3.80
2023-01-17T00:30:59.890Z,3.70
2023-01-17T00:33:26.823Z,3.80
2023-01-17T00:35:54.484Z,3.90
2023-01-17T00:38:22.821Z,3.80
2023-01-17T00:40:50.254Z,3.80
2023-01-17T00:43:37.496Z,3.80
2023-01-17T00:46:25.039Z,3.80
2023-01-17T00:49:10.680Z,3.70
2023-01-17T00:51:56.595Z,3.80
2023-01-17T00:54:42.313Z,3.70
2023-01-17T00:57:27.724Z,3.60
2023-01-17T01:00:13.159Z,3.60
2023-01-17T01:03:00.380Z,3.70
2023-01-17T01:05:45.826Z,3.70
2023-01-17T01:08:36.412Z,3.70
2023-01-17T01:11:24.396Z,3.60
2023-01-17T01:14:10.124Z,3.70
2023-01-17T01:16:55.562Z,3.70
2023-01-17T01:19:42.748Z,3.60
2023-01-17T01:22:28.630Z,3.60
2023-01-17T01:25:14.060Z,3.50
2023-01-17T01:27:59.555Z,3.50
2023-01-17T01:30:44.881Z,3.60
2023-01-17T01:33:19.368Z,3.60
2023-01-17T01:35:50.332Z,3.60
2023-01-17T01:38:18.446Z,3.60
2023-01-17T01:40:47.839Z,3.70
2023-01-17T01:43:17.737Z,3.70
2023-01-17T01:45:49.405Z,3.70
2023-01-17T01:48:34.704Z,3.70
2023-01-17T01:51:07.138Z,3.70
2023-01-17T01:53:38.632Z,3.70
2023-01-17T01:56:10.377Z,3.70
2023-01-17T01:58:39.455Z,3.60
2023-01-17T02:01:09.291Z,3.80
2023-01-17T02:03:38.536Z,3.80
2023-01-17T02:06:29.220Z,3.90
2023-01-17T02:08:59.782Z,3.90
2023-01-17T02:11:28.266Z,3.80
2023-01-17T02:13:56.087Z,3.70
2023-01-17T02:16:39.168Z,3.80
2023-01-17T02:19:34.469Z,3.80
2023-01-17T02:22:26.319Z,3.70
2023-01-17T02:25:12.065Z,3.70
2023-01-17T02:27:54.721Z,3.70
2023-01-17T02:30:46.509Z,3.70
2023-01-17T02:33:25.411Z,3.80
2023-01-17T02:36:05.107Z,3.80
2023-01-17T02:38:40.870Z,3.80
2023-01-17T02:41:14.566Z,3.70
2023-01-17T02:43:42.691Z,3.70
2023-01-17T02:46:11.954Z,3.70
2023-01-17T02:48:40.356Z,3.80
2023-01-17T02:51:34.088Z,3.90
2023-01-17T02:54:16.746Z,3.90
2023-01-17T02:56:54.884Z,4.00
2023-01-17T02:59:40.491Z,4.00
2023-01-17T03:02:22.175Z,3.90
2023-01-17T03:04:55.058Z,3.90
2023-01-17T03:07:26.907Z,3.80
2023-01-17T03:09:59.432Z,3.90
2023-01-17T03:12:28.966Z,3.80
2023-01-17T03:14:56.816Z,3.90
2023-01-17T03:17:31.093Z,3.90
2023-01-17T03:19:59.216Z,3.90
2023-01-17T03:22:27.031Z,3.90
2023-01-17T03:24:54.836Z,3.90
2023-01-17T03:27:22.701Z,3.90
2023-01-17T03:29:50.469Z,4.00
2023-01-17T03:32:18.305Z,4.00
2023-01-17T03:34:47.415Z,4.00
2023-01-17T03:37:15.256Z,4.00
2023-01-17T03:39:43.061Z,3.90
2023-01-17T03:42:10.908Z,3.90
2023-01-17T03:44:38.718Z,4.00
2023-01-17T03:47:06.563Z,4.00
2023-01-17T03:49:34.397Z,4.00
2023-01-17T03:52:03.555Z,4.00
2023-01-17T03:54:31.341Z,4.00
2023-01-17T03:56:59.140Z,4.10
2023-01-17T03:59:27.523Z,4.10
2023-01-17T04:01:55.431Z,4.10
2023-01-17T04:04:23.730Z,4.00
2023-01-17T04:06:51.506Z,4.00
2023-01-17T04:09:20.609Z,4.00
2023-01-17T04:11:50.752Z,4.10
2023-01-17T04:14:18.787Z,4.00
2023-01-17T04:16:46.822Z,4.10
2023-01-17T04:19:14.865Z,4.10
2023-01-17T04:21:42.667Z,4.10
2023-01-17T04:24:10.684Z,4.00
2023-01-17T04:26:39.803Z,4.00
2023-01-17T04:29:07.652Z,4.00
2023-01-17T04:31:35.647Z,4.00
2023-01-17T04:34:03.507Z,4.20
2023-01-17T04:36:31.450Z,4.20
2023-01-17T04:38:59.276Z,4.20
2023-01-17T04:41:27.041Z,4.20
2023-01-17T04:43:56.202Z,4.20
2023-01-17T04:46:24.116Z,4.20
2023-01-17T04:48:51.938Z,4.10
2023-01-17T04:51:19.735Z,4.10
2023-01-17T04:53:47.535Z,3.90
2023-01-17T04:56:15.299Z,3.80
2023-01-17T04:58:43.087Z,3.80
2023-01-17T05:01:12.416Z,3.70
2023-01-17T05:03:40.246Z,3.70
2023-01-17T05:06:08.112Z,3.70
2023-01-17T05:08:35.934Z,3.60
2023-01-17T05:11:03.788Z,3.60
2023-01-17T05:13:31.591Z,3.50
2023-01-17T05:15:59.673Z,3.40
2023-01-17T05:18:28.942Z,3.30
2023-01-17T05:21:02.734Z,3.30
2023-01-17T05:23:30.667Z,3.10
2023-01-17T05:25:58.529Z,3.00
2023-01-17T05:28:26.470Z,2.90
2023-01-17T05:30:54.311Z,2.80
2023-01-17T05:33:22.201Z,2.80
2023-01-17T05:35:51.369Z,2.80
2023-01-17T05:38:19.379Z,2.70
2023-01-17T05:40:47.187Z,2.60
2023-01-17T05:43:15.034Z,2.70
2023-01-17T05:45:42.814Z,2.60
2023-01-17T05:48:10.641Z,2.50
2023-01-17T05:50:39.343Z,2.40
2023-01-17T05:53:10.648Z,2.30
2023-01-17T05:55:39.291Z,2.30
2023-01-17T05:58:09.019Z,2.20
2023-01-17T06:00:37.838Z,2.30
2023-01-17T06:03:05.780Z,2.30
2023-01-17T06:05:33.607Z,2.30
2023-01-17T06:08:01.417Z,2.20
2023-01-17T06:10:30.567Z,2.30
2023-01-17T06:13:02.994Z,2.20
2023-01-17T06:15:30.819Z,2.10
2023-01-17T06:17:58.702Z,2.30
2023-01-17T06:20:27.322Z,2.30
2023-01-17T06:22:55.256Z,2.30
2023-01-17T06:25:23.069Z,2.30
2023-01-17T06:27:54.640Z,2.40
2023-01-17T06:30:22.709Z,2.50
2023-01-17T06:32:53.806Z,2.40
2023-01-17T06:35:21.656Z,2.50
2023-01-17T06:37:52.092Z,2.50
2023-01-17T06:40:20.123Z,2.40
2023-01-17T06:42:47.990Z,2.50
2023-01-17T06:45:17.547Z,2.40
2023-01-17T06:47:45.652Z,2.60
2023-01-17T06:50:15.060Z,2.60
2023-01-17T06:52:43.700Z,2.50
2023-01-17T06:55:11.909Z,2.40
2023-01-17T06:57:39.720Z,2.30
2023-01-17T07:00:09.347Z,2.30
2023-01-17T07:02:38.497Z,2.10
2023-01-17T07:05:08.548Z,2.00
2023-01-17T07:07:36.341Z,1.90
2023-01-17T07:10:04.969Z,2.00
2023-01-17T07:12:32.750Z,2.00
2023-01-17T07:15:00.528Z,2.00
2023-01-17T07:17:28.363Z,2.00
2023-01-17T07:19:57.535Z,1.90
2023-01-17T07:22:25.357Z,1.90
2023-01-17T07:24:53.508Z,1.90
2023-01-17T07:27:21.328Z,2.00
2023-01-17T07:29:49.662Z,2.00
2023-01-17T07:32:17.453Z,2.10
2023-01-17T07:34:45.231Z,2.00
2023-01-17T07:37:15.305Z,2.00
2023-01-17T07:39:43.426Z,2.00
2023-01-17T07:42:11.190Z,1.80
2023-01-17T07:44:41.436Z,1.70
2023-01-17T07:47:09.245Z,1.90
2023-01-17T07:49:37.077Z,1.80
2023-01-17T07:52:05.219Z,1.90
2023-01-17T07:54:34.401Z,2.00
2023-01-17T07:57:02.786Z,2.30
2023-01-17T07:59:30.737Z,2.30
2023-01-17T08:01:58.628Z,2.30
2023-01-17T08:04:27.103Z,2.20
2023-01-17T08:06:55.074Z,2.10
2023-01-17T08:09:23.008Z,2.00
2023-01-17T08:11:52.135Z,2.10
2023-01-17T08:14:20.008Z,1.90
2023-01-17T08:16:47.886Z,2.00
2023-01-17T08:19:16.738Z,1.90
2023-01-17T08:21:44.507Z,2.10
2023-01-17T08:24:13.567Z,2.00
2023-01-17T08:26:41.901Z,1.90
2023-01-17T08:29:11.112Z,1.90
2023-01-17T08:31:39.062Z,2.20
2023-01-17T08:34:06.918Z,2.20
2023-01-17T08:36:34.715Z,2.20
2023-01-17T08:39:02.504Z,2.20
2023-01-17T08:41:32.111Z,2.30
2023-01-17T08:43:59.893Z,2.30
2023-01-17T08:46:31.382Z,2.30
2023-01-17T08:49:02.612Z,2.10
2023-01-17T08:51:32.368Z,2.00
2023-01-17T08:54:00.546Z,2.10
2023-01-17T08:56:28.490Z,2.10
2023-01-17T08:58:56.344Z,2.20
2023-01-17T09:01:24.238Z,2.20
2023-01-17T09:03:53.512Z,2.20
2023-01-17T09:06:21.919Z,2.20
2023-01-17T09:08:52.426Z,2.40
2023-01-17T09:11:20.239Z,2.80
2023-01-17T09:13:48.112Z,2.70
2023-01-17T09:16:15.965Z,2.70
2023-01-17T09:18:43.833Z,2.90
2023-01-17T09:21:14.675Z,2.90
2023-01-17T09:23:43.196Z,3.00
2023-01-17T09:26:19.635Z,3.20
2023-01-17T09:28:47.585Z,3.30
2023-01-17T09:31:17.501Z,3.50
2023-01-17T09:33:45.839Z,3.50
2023-01-17T09:36:15.025Z,3.40
2023-01-17T09:38:43.259Z,3.50
2023-01-17T09:41:30.079Z,3.70
2023-01-17T09:44:03.674Z,3.80
2023-01-17T09:46:38.487Z,4.00
2023-01-17T09:49:10.645Z,4.10
2023-01-17T09:51:40.321Z,4.10
2023-01-17T09:54:18.926Z,4.00
2023-01-17T09:56:56.606Z,4.10
2023-01-17T09:59:35.270Z,4.10
2023-01-17T10:02:14.507Z,4.20
2023-01-17T10:04:55.520Z,4.30
2023-01-17T10:07:37.244Z,4.50
2023-01-17T10:10:16.104Z,4.70
2023-01-17T10:12:51.826Z,4.80
2023-01-17T10:20:47.497Z,4.70
2023-01-17T10:23:31.215Z,4.70
2023-01-17T10:26:02.661Z,4.80
2023-01-17T10:28:35.381Z,4.90
2023-01-17T10:31:07.548Z,4.90
2023-01-17T10:33:41.345Z,5.00
2023-01-17T10:36:15.708Z,5.00
2023-01-17T10:38:48.407Z,5.00
2023-01-17T10:41:21.886Z,5.00
2023-01-17T10:43:58.437Z,5.10
2023-01-17T10:46:32.561Z,5.20
2023-01-17T10:49:01.633Z,5.20
2023-01-17T10:51:49.730Z,5.20
2023-01-17T10:54:30.180Z,5.30
2023-01-17T10:56:59.215Z,5.30
2023-01-17T10:59:31.761Z,5.40
2023-01-17T11:02:00.687Z,5.50
2023-01-17T11:04:35.810Z,5.50
2023-01-17T11:07:15.272Z,5.50
2023-01-17T11:09:45.980Z,5.50
2023-01-17T11:12:19.864Z,5.50
2023-01-17T11:15:02.891Z,5.50
2023-01-17T11:17:31.493Z,5.50
2023-01-17T11:20:19.920Z,5.60
2023-01-17T11:23:02.252Z,5.50
2023-01-17T11:25:34.290Z,5.60
2023-01-17T11:28:06.854Z,5.50
2023-01-17T11:30:34.976Z,5.50
2023-01-17T11:33:06.081Z,5.50
2023-01-17T11:35:36.721Z,5.50
2023-01-17T11:38:07.549Z,5.60
2023-01-17T11:40:41.281Z,5.50
2023-01-17T11:43:26.398Z,5.50
2023-01-17T11:46:06.501Z,5.60
2023-01-17T11:48:37.548Z,5.50
2023-01-17T11:51:15.279Z,5.50
2023-01-17T11:53:48.075Z,5.50
2023-01-17T11:56:29.973Z,5.40
2023-01-17T11:59:19.806Z,5.40
2023-01-17T12:01:58.388Z,5.40
2023-01-17T12:04:30.957Z,5.40
2023-01-17T12:07:17.467Z,5.40
2023-01-17T12:09:53.043Z,5.30
2023-01-17T12:12:50.515Z,5.40
2023-01-17T12:15:28.265Z,5.40
2023-01-17T12:18:14.480Z,5.40
2023-01-17T12:20:52.403Z,5.30
2023-01-17T12:23:34.295Z,5.20
2023-01-17T12:26:20.709Z,5.20
2023-01-17T12:29:11.125Z,5.20
2023-01-17T12:31:46.397Z,5.20
2023-01-17T12:34:25.277Z,5.30
2023-01-17T12:36:57.749Z,5.30
2023-01-17T12:39:32.021Z,5.40
2023-01-17T12:42:05.490Z,5.40
2023-01-17T12:44:50.101Z,5.40
2023-01-17T12:47:20.697Z,5.40
2023-01-17T12:50:03.827Z,5.40
2023-01-17T12:52:43.458Z,5.50
2023-01-17T12:55:17.819Z,5.40
2023-01-17T12:57:52.832Z,5.50
2023-01-17T13:00:25.511Z,5.50
2023-01-17T13:02:58.530Z,5.50
2023-01-17T13:05:32.450Z,5.40
2023-01-17T13:08:07.486Z,5.50
2023-01-17T13:10:43.406Z,5.50
2023-01-17T13:13:20.221Z,5.50
2023-01-17T13:15:52.081Z,5.50
2023-01-17T13:18:25.638Z,5.60
2023-01-17T13:21:14.755Z,5.60
2023-01-17T13:24:05.963Z,5.60
2023-01-17T13:26:45.319Z,5.60
2023-01-17T13:29:22.155Z,5.60
2023-01-17T13:31:57.865Z,5.70
2023-01-17T13:34:41.662Z,5.80
2023-01-17T13:37:42.412Z,5.90
2023-01-17T13:40:26.939Z,5.80
2023-01-17T13:42:59.621Z,5.80
2023-01-17T13:45:30.529Z,5.70
2023-01-17T13:48:27.543Z,5.60
2023-01-17T13:50:56.585Z,5.60
2023-01-17T13:53:58.954Z,5.50
2023-01-17T13:56:35.078Z,5.40
2023-01-17T13:59:34.620Z,5.40
2023-01-17T14:02:02.572Z,5.40
2023-01-17T14:05:10.174Z,5.30
2023-01-17T14:07:46.717Z,5.40
2023-01-17T14:10:34.620Z,5.40
2023-01-17T14:13:03.393Z,5.30
2023-01-17T14:15:34.438Z,5.30
2023-01-17T14:18:03.911Z,5.40
2023-01-17T14:21:06.902Z,5.30
2023-01-17T14:24:04.367Z,5.30
2023-01-17T14:26:53.482Z,5.20
2023-01-17T14:29:45.454Z,5.20
2023-01-17T14:32:15.585Z,5.00
2023-01-17T14:34:45.323Z,4.90
2023-01-17T14:37:25.141Z,4.70
2023-01-17T14:39:54.492Z,4.50
2023-01-17T14:42:25.179Z,4.50
2023-01-17T14:45:00.204Z,4.50
2023-01-17T14:47:33.098Z,4.40
2023-01-17T14:50:21.495Z,4.30
2023-01-17T14:52:49.458Z,4.30
2023-01-17T14:55:20.279Z,4.20
2023-01-17T14:57:55.894Z,4.00
2023-01-17T15:00:25.446Z,4.00
2023-01-17T15:02:54.773Z,4.00
2023-01-17T15:05:24.793Z,4.00
2023-01-17T15:10:27.733Z,3.80
2023-01-17T15:12:57.410Z,3.90
2023-01-17T15:15:29.836Z,3.80
2023-01-17T15:18:19.119Z,3.90
2023-01-17T15:20:51.715Z,3.90
2023-01-17T15:23:21.893Z,3.70
2023-01-17T15:25:53.403Z,3.70
2023-01-17T15:28:21.433Z,3.60
2023-01-17T15:31:07.188Z,3.60
2023-01-17T15:33:36.482Z,3.50
2023-01-17T15:36:06.530Z,3.50
2023-01-17T15:38:39.249Z,3.50
2023-01-17T15:41:14.591Z,3.40
2023-01-17T15:43:45.094Z,3.40
2023-01-17T15:46:30.413Z,3.20
2023-01-17T15:49:17.941Z,3.30
2023-01-17T15:51:52.418Z,3.30
2023-01-17T15:54:44.329Z,3.30
2023-01-17T15:57:26.060Z,3.10
2023-01-17T16:00:00.503Z,3.10
2023-01-17T16:02:37.255Z,3.30
2023-01-17T16:05:41.799Z,3.20
2023-01-17T16:08:29.510Z,3.10
2023-01-17T16:11:02.035Z,3.00
2023-01-17T16:13:33.516Z,3.00
2023-01-17T16:16:25.847Z,3.00
2023-01-17T16:19:00.879Z,3.00
2023-01-17T16:21:30.114Z,3.00
2023-01-17T16:23:59.240Z,2.90
2023-01-17T16:26:28.995Z,2.80
2023-01-17T16:28:58.236Z,2.70
2023-01-17T16:31:26.286Z,2.70
2023-01-17T16:33:54.131Z,2.60
2023-01-17T16:36:22.902Z,2.50
2023-01-17T16:38:52.350Z,2.60
2023-01-17T16:41:20.724Z,2.50
2023-01-17T16:44:00.184Z,2.50
2023-01-17T16:46:28.581Z,2.60
2023-01-17T16:48:56.722Z,2.50
2023-01-17T16:51:24.521Z,2.60
2023-01-17T16:53:52.337Z,2.60
2023-01-17T16:56:21.137Z,2.60
2023-01-17T16:58:48.966Z,2.60
2023-01-17T17:01:21.050Z,2.60
2023-01-17T17:03:49.473Z,2.60
2023-01-17T17:06:17.630Z,2.50
2023-01-17T17:08:45.952Z,2.50
2023-01-17T17:11:16.469Z,2.60
2023-01-17T17:13:45.526Z,2.60
2023-01-17T17:16:15.803Z,2.50
2023-01-17T17:18:46.877Z,2.50
2023-01-17T17:21:15.110Z,2.40
2023-01-17T17:23:42.923Z,2.50
2023-01-17T17:26:10.821Z,2.60
2023-01-17T17:28:38.846Z,2.50
2023-01-17T17:31:10.358Z,2.40
2023-01-17T17:33:38.683Z,2.40
2023-01-17T17:36:10.684Z,2.40
2023-01-17T17:38:50.697Z,2.50
2023-01-17T17:41:20.352Z,2.40
2023-01-17T17:43:48.319Z,2.50
2023-01-17T17:46:16.592Z,2.60
2023-01-17T17:48:44.428Z,2.50
2023-01-17T17:51:24.890Z,2.50
2023-01-17T17:53:54.518Z,2.40
2023-01-17T17:56:23.145Z,2.40
2023-01-17T17:58:51.391Z,2.40
2023-01-17T18:01:19.399Z,2.30
2023-01-17T18:03:47.265Z,2.40
2023-01-17T18:06:17.354Z,2.20
2023-01-17T18:08:47.012Z,2.10
2023-01-17T18:11:18.456Z,2.20
2023-01-17T18:13:50.285Z,2.20
2023-01-17T18:16:20.773Z,2.10
2023-01-17T18:18:51.056Z,2.20
2023-01-17T18:21:23.588Z,2.20
2023-01-17T18:23:54.505Z,2.20
2023-01-17T18:26:24.360Z,2.10
2023-01-17T18:28:53.916Z,2.20
2023-01-17T18:31:21.972Z,2.20
2023-01-17T18:33:49.861Z,2.20
2023-01-17T18:36:17.695Z,2.30
2023-01-17T18:38:47.004Z,2.30
2023-01-17T18:41:17.960Z,2.30
2023-01-17T18:43:46.446Z,2.20
2023-01-17T18:46:14.563Z,2.20
2023-01-17T18:48:42.887Z,2.20
2023-01-17T18:51:12.360Z,2.20
2023-01-17T18:53:41.446Z,2.30
2023-01-17T18:56:11.360Z,2.20
2023-01-17T18:58:41.898Z,2.20
2023-01-17T19:01:11.697Z,2.00
2023-01-17T19:03:40.963Z,2.10
2023-01-17T19:06:10.656Z,2.00
2023-01-17T19:08:40.116Z,2.10
2023-01-17T19:11:08.589Z,2.20
2023-01-17T19:13:37.906Z,2.20
2023-01-17T19:16:10.001Z,2.20
2023-01-17T19:18:37.857Z,2.30
2023-01-17T19:21:08.838Z,2.20
2023-01-17T19:23:37.812Z,2.20
2023-01-17T19:26:08.191Z,2.30
2023-01-17T19:28:38.902Z,2.40
2023-01-17T19:31:09.632Z,2.30
2023-01-17T19:33:39.271Z,2.30
2023-01-17T19:36:10.455Z,2.40
2023-01-17T19:38:39.111Z,2.50
2023-01-17T19:41:12.158Z,2.40
2023-01-17T19:43:41.375Z,2.40
2023-01-17T19:46:12.079Z,2.50
2023-01-17T19:48:40.733Z,2.50
2023-01-17T19:51:10.384Z,2.50
2023-01-17T19:53:39.360Z,2.40
2023-01-17T19:56:08.978Z,2.30
2023-01-17T19:58:37.567Z,2.30
2023-01-17T20:01:07.265Z,2.30
2023-01-17T20:03:37.236Z,2.50
2023-01-17T20:06:05.681Z,2.60
2023-01-17T20:08:34.390Z,2.50
2023-01-17T20:11:03.329Z,2.40
2023-01-17T20:13:31.165Z,2.50
2023-01-17T20:16:03.191Z,2.50
2023-01-17T20:18:31.038Z,2.50
2023-01-17T20:21:05.051Z,2.50
2023-01-17T20:23:36.042Z,2.50
2023-01-17T20:26:04.050Z,2.40
2023-01-17T20:28:34.197Z,2.30
2023-01-17T20:31:06.605Z,2.30
2023-01-17T20:33:35.121Z,2.40
2023-01-17T20:36:10.667Z,2.30
2023-01-17T20:38:44.575Z,2.30
2023-01-17T20:41:14.168Z,2.30
2023-01-17T20:43:42.641Z,2.30
2023-01-17T20:46:11.053Z,2.20
2023-01-17T20:48:44.193Z,2.10
2023-01-17T20:51:14.225Z,2.20
2023-01-17T20:53:43.324Z,2.20
2023-01-17T20:56:12.795Z,2.20
2023-01-17T20:58:40.796Z,2.30
2023-01-17T21:01:09.324Z,2.30
2023-01-17T21:03:38.040Z,2.40
2023-01-17T21:06:08.198Z,2.50
2023-01-17T21:08:39.232Z,2.70
2023-01-17T21:11:08.580Z,2.70
2023-01-17T21:13:36.434Z,2.90
2023-01-17T21:16:04.640Z,2.90
2023-01-17T21:18:33.415Z,3.00
2023-01-17T21:21:05.659Z,3.10
2023-01-17T21:23:34.255Z,3.20
2023-01-17T21:26:03.666Z,3.30
2023-01-17T21:28:34.766Z,3.30
2023-01-17T21:31:20.399Z,3.30
2023-01-17T21:33:48.573Z,3.20
2023-01-17T21:36:16.723Z,3.30
2023-01-17T21:38:49.537Z,3.40
2023-01-17T21:41:19.318Z,3.40
2023-01-17T21:43:47.641Z,3.40
2023-01-17T21:46:15.545Z,3.40
2023-01-17T21:48:44.412Z,3.40
2023-01-17T21:51:12.222Z,3.40
2023-01-17T21:53:40.760Z,3.50
2023-01-17T21:56:44.291Z,3.50
2023-01-17T21:59:13.405Z,3.40
2023-01-17T22:01:41.293Z,3.50
2023-01-17T22:04:11.669Z,3.50
2023-01-17T22:06:39.652Z,3.60
2023-01-17T22:09:08.340Z,3.60
2023-01-17T22:11:37.720Z,3.50
2023-01-17T22:14:05.928Z,3.60
2023-01-17T22:16:35.134Z,3.60
2023-01-17T22:19:02.911Z,3.60
2023-01-17T22:21:30.705Z,3.60
2023-01-17T22:24:00.208Z,3.60
2023-01-17T22:26:31.409Z,3.60
2023-01-17T22:29:02.264Z,3.50
2023-01-17T22:31:30.158Z,3.60
2023-01-17T22:34:00.955Z,3.50
2023-01-17T22:36:29.004Z,3.50
2023-01-17T22:38:56.871Z,3.60
2023-01-17T22:41:27.956Z,3.60
2023-01-17T22:43:58.548Z,3.60
2023-01-17T22:46:31.027Z,3.70
2023-01-17T22:49:00.837Z,3.70
2023-01-17T22:51:29.826Z,3.60
2023-01-17T22:53:59.745Z,3.60
2023-01-17T22:56:30.044Z,3.70
2023-01-17T22:58:58.994Z,3.70
2023-01-17T23:01:28.418Z,3.70
2023-01-17T23:03:58.422Z,3.70
2023-01-17T23:06:30.280Z,3.60
2023-01-17T23:08:59.485Z,3.60
2023-01-17T23:11:46.001Z,3.60
2023-01-17T23:14:17.194Z,3.60
2023-01-17T23:17:05.369Z,3.60
2023-01-17T23:19:35.377Z,3.60
2023-01-17T23:22:19.295Z,3.60
2023-01-17T23:24:50.173Z,3.70
2023-01-17T23:27:38.337Z,3.60
2023-01-17T23:30:08.933Z,3.60
2023-01-17T23:32:36.724Z,3.50
2023-01-17T23:35:04.873Z,3.50
2023-01-17T23:37:51.485Z,3.40
2023-01-17T23:40:19.782Z,3.40
2023-01-17T23:43:05.437Z,3.40
2023-01-17T23:45:35.678Z,3.50
2023-01-17T23:48:05.451Z,3.50
2023-01-17T23:50:34.035Z,3.50
2023-01-17T23:53:06.937Z,3.50
2023-01-17T23:55:37.046Z,3.50
2023-01-17T23:58:05.572Z,3.50
